createdAt,value
2022-11-23T00:02:01.931Z,99835.06
2022-11-23T00:06:03.867Z,99831.47
2022-11-23T00:10:06.454Z,99847.75
2022-11-23T00:14:08.225Z,99844.72
2022-11-23T00:18:10.258Z,99849.09
2022-11-23T00:22:12.054Z,99847.81
2022-11-23T00:26:15.082Z,99838.66
2022-11-23T00:30:17.195Z,99839.38
2022-11-23T00:34:19.161Z,99832.47
2022-11-23T00:38:20.869Z,99837.44
2022-11-23T00:42:24.337Z,99844.38
2022-11-23T00:46:28.917Z,99838.75
2022-11-23T00:50:32.599Z,99838.50
2022-11-23T00:54:34.452Z,99826.53
2022-11-23T00:58:39.500Z,99827.50
2022-11-23T01:02:41.787Z,99821.66
2022-11-23T01:06:44.257Z,99821.59
2022-11-23T01:10:46.046Z,99817.34
2022-11-23T01:14:48.208Z,99830.81
2022-11-23T01:18:58.057Z,99821.94
2022-11-23T01:23:00.030Z,99814.97
2022-11-23T01:27:01.937Z,99808.41
2022-11-23T01:31:09.422Z,99810.41
2022-11-23T01:35:11.514Z,99815.69
2022-11-23T01:39:13.920Z,99808.59
2022-11-23T01:43:18.571Z,99809.44
2022-11-23T01:47:20.688Z,99804.34
2022-11-23T01:51:32.115Z,99819.28
2022-11-23T01:55:35.361Z,99815.13
2022-11-23T01:59:39.178Z,99817.16
2022-11-23T02:03:48.232Z,99804.56
2022-11-23T02:07:51.386Z,99801.88
2022-11-23T02:11:53.606Z,99808.22
2022-11-23T02:15:57.717Z,99810.03
2022-11-23T02:20:10.239Z,99820.34
2022-11-23T02:24:23.516Z,99821.72
2022-11-23T02:28:31.497Z,99820.94
2022-11-23T02:32:34.765Z,99828.22
2022-11-23T02:36:39.888Z,99827.13
2022-11-23T02:40:41.606Z,99831.34
2022-11-23T02:45:02.472Z,99838.06
2022-11-23T02:49:04.114Z,99843.28
2022-11-23T02:53:06.044Z,99841.00
2022-11-23T02:57:08.203Z,99831.84
2022-11-23T03:01:10.240Z,99828.66
2022-11-23T03:05:12.919Z,99825.72
2022-11-23T03:09:15.260Z,99830.09
2022-11-23T03:13:17.252Z,99838.06
2022-11-23T03:17:18.997Z,99833.97
2022-11-23T03:21:21.309Z,99844.22
2022-11-23T03:25:22.988Z,99840.75
2022-11-23T03:29:28.642Z,99843.94
2022-11-23T03:33:32.770Z,99837.34
2022-11-23T03:37:34.887Z,99839.84
2022-11-23T03:41:37.195Z,99845.13
2022-11-23T03:45:39.317Z,99833.22
2022-11-23T03:49:40.926Z,99847.06
2022-11-23T03:53:44.684Z,99843.88
2022-11-23T03:57:48.142Z,99842.44
2022-11-23T04:01:50.102Z,99845.59
2022-11-23T04:06:00.430Z,99846.91
2022-11-23T04:10:28.560Z,99855.47
2022-11-23T04:14:39.138Z,99846.13
2022-11-23T04:18:41.670Z,99844.28
2022-11-23T04:22:43.839Z,99847.84
2022-11-23T04:26:46.728Z,99854.78
2022-11-23T04:30:49.750Z,99859.16
2022-11-23T04:34:52.371Z,99856.38
2022-11-23T04:38:54.417Z,99855.41
2022-11-23T04:43:06.565Z,99852.03
2022-11-23T04:47:11.730Z,99850.56
2022-11-23T04:51:13.818Z,99846.47
2022-11-23T04:55:17.049Z,99851.88
2022-11-23T04:59:27.082Z,99849.66
2022-11-23T05:03:29.112Z,99838.06
2022-11-23T05:07:31.175Z,99840.97
2022-11-23T05:11:37.303Z,99854.19
2022-11-23T05:15:38.938Z,99845.31
2022-11-23T05:19:41.421Z,99842.88
2022-11-23T05:23:43.234Z,99833.31
2022-11-23T05:27:45.268Z,99841.72
2022-11-23T05:31:48.179Z,99849.38
2022-11-23T05:35:50.148Z,99848.47
2022-11-23T05:39:54.323Z,99854.47
2022-11-23T05:43:57.594Z,99851.28
2022-11-23T05:48:03.038Z,99857.31
2022-11-23T05:52:18.833Z,99857.59
2022-11-23T05:56:22.986Z,99849.41
2022-11-23T06:00:40.312Z,99862.63
2022-11-23T06:04:43.750Z,99856.06
2022-11-23T06:08:50.231Z,99856.72
2022-11-23T06:12:53.353Z,99873.03
2022-11-23T06:16:57.550Z,99867.50
2022-11-23T06:21:08.360Z,99861.75
2022-11-23T06:25:10.511Z,99874.66
2022-11-23T06:29:19.486Z,99875.56
2022-11-23T06:33:21.687Z,99877.41
2022-11-23T06:37:25.731Z,99880.78
2022-11-23T06:41:32.417Z,99884.22
2022-11-23T06:45:36.145Z,99888.38
2022-11-23T06:49:42.268Z,99880.09
2022-11-23T06:53:52.834Z,99886.66
2022-11-23T06:57:57.428Z,99888.00
2022-11-23T07:01:59.243Z,99893.94
2022-11-23T07:06:10.426Z,99904.47
2022-11-23T07:10:13.630Z,99910.38
2022-11-23T07:14:20.895Z,99919.88
2022-11-23T07:18:26.303Z,99921.13
2022-11-23T07:22:33.564Z,99919.34
2022-11-23T07:26:35.231Z,99922.59
2022-11-23T07:30:39.201Z,99924.34
2022-11-23T07:34:41.259Z,99913.84
2022-11-23T07:38:43.707Z,99917.25
2022-11-23T07:42:47.638Z,99920.00
2022-11-23T07:46:53.295Z,99914.31
2022-11-23T07:50:55.460Z,99914.63
2022-11-23T07:54:57.148Z,99922.44
2022-11-23T07:58:59.236Z,99921.94
2022-11-23T08:07:23.249Z,99918.47
2022-11-23T08:11:25.386Z,99922.59
2022-11-23T08:15:30.352Z,99938.00
2022-11-23T08:19:37.586Z,99950.75
2022-11-23T08:23:39.608Z,99945.34
2022-11-23T08:27:41.457Z,99953.25
2022-11-23T08:31:43.864Z,99949.38
2022-11-23T08:35:45.710Z,99933.88
2022-11-23T08:39:47.711Z,99937.03
2022-11-23T08:43:51.029Z,99952.56
2022-11-23T08:47:54.113Z,99949.44
2022-11-23T08:51:55.850Z,99949.88
2022-11-23T08:56:01.401Z,99942.38
2022-11-23T09:00:05.101Z,99956.31
2022-11-23T09:04:07.287Z,99958.16
2022-11-23T09:08:09.080Z,99971.16
2022-11-23T09:12:11.102Z,99969.13
2022-11-23T09:16:12.785Z,99979.53
2022-11-23T09:20:14.947Z,99968.63
2022-11-23T09:24:16.972Z,99968.13
2022-11-23T09:28:24.405Z,99967.28
2022-11-23T09:32:26.654Z,99965.72
2022-11-23T09:36:28.780Z,99968.19
2022-11-23T09:40:35.962Z,99978.91
2022-11-23T09:44:40.886Z,99976.41
2022-11-23T09:48:48.684Z,99969.38
2022-11-23T09:52:51.623Z,99966.19
2022-11-23T09:57:01.401Z,99967.72
2022-11-23T10:01:11.257Z,99961.94
2022-11-23T10:05:22.776Z,99945.72
2022-11-23T10:09:45.698Z,99946.06
2022-11-23T10:14:16.087Z,99959.88
2022-11-23T10:19:12.719Z,99966.63
2022-11-23T10:23:26.497Z,99971.19
2022-11-23T10:27:29.676Z,99971.22
2022-11-23T10:31:31.733Z,99980.09
2022-11-23T10:35:35.287Z,99961.81
2022-11-23T10:39:37.525Z,99957.84
2022-11-23T10:43:46.255Z,99957.84
2022-11-23T10:47:50.068Z,99950.81
2022-11-23T10:51:54.916Z,99953.72
2022-11-23T10:55:59.743Z,99939.28
2022-11-23T11:00:10.801Z,99928.25
2022-11-23T11:04:23.139Z,99926.03
2022-11-23T11:08:30.041Z,99928.13
2022-11-23T11:12:35.567Z,99915.69
2022-11-23T11:16:38.058Z,99941.66
2022-11-23T11:20:40.029Z,99931.81
2022-11-23T11:24:47.352Z,99932.31
2022-11-23T11:28:51.716Z,99927.25
2022-11-23T11:33:14.896Z,99933.88
2022-11-23T11:37:36.774Z,99905.59
2022-11-23T11:41:40.035Z,99899.69
2022-11-23T11:46:34.403Z,99915.38
2022-11-23T11:50:39.020Z,99902.69
2022-11-23T11:55:07.885Z,99935.59
2022-11-23T11:59:31.474Z,99939.75
2022-11-23T12:03:42.701Z,99926.69
2022-11-23T12:08:06.539Z,99940.91
2022-11-23T12:12:16.271Z,99938.81
2022-11-23T12:16:34.140Z,99926.81
2022-11-23T12:21:18.219Z,99937.13
2022-11-23T12:25:36.887Z,99951.09
2022-11-23T12:29:57.529Z,99946.75
2022-11-23T12:34:21.566Z,99941.66
2022-11-23T12:38:30.496Z,99934.03
2022-11-23T12:42:44.557Z,99924.47
2022-11-23T12:46:59.085Z,99912.53
2022-11-23T12:51:33.924Z,99908.09
2022-11-23T12:55:56.648Z,99911.41
2022-11-23T13:00:05.578Z,99896.38
2022-11-23T13:04:45.413Z,99907.00
2022-11-23T13:09:25.215Z,99899.94
2022-11-23T13:13:48.780Z,99897.47
2022-11-23T13:18:13.863Z,99882.81
2022-11-23T13:22:19.944Z,99883.34
2022-11-23T13:26:24.529Z,99887.69
2022-11-23T13:35:03.780Z,99890.41
2022-11-23T13:39:43.939Z,99888.84
2022-11-23T13:43:46.546Z,99892.44
2022-11-23T13:48:07.105Z,99888.25
2022-11-23T13:52:20.966Z,99889.88
2022-11-23T13:56:27.105Z,99887.50
2022-11-23T14:00:48.728Z,99890.00
2022-11-23T14:04:51.250Z,99902.22
2022-11-23T14:09:04.385Z,99898.25
2022-11-23T14:13:19.193Z,99898.84
2022-11-23T14:17:52.402Z,99902.56
2022-11-23T14:22:26.543Z,99908.22
2022-11-23T14:26:41.561Z,99884.81
2022-11-23T14:31:06.398Z,99890.25
2022-11-23T14:35:08.101Z,99890.09
2022-11-23T14:39:38.002Z,99890.50
2022-11-23T14:43:42.683Z,99893.09
2022-11-23T14:47:44.667Z,99892.09
2022-11-23T14:51:47.017Z,99899.00
2022-11-23T14:55:50.215Z,99907.50
2022-11-23T14:59:56.114Z,99915.72
2022-11-23T15:04:23.192Z,99927.63
2022-11-23T15:08:32.081Z,99935.63
2022-11-23T15:12:47.301Z,99921.50
2022-11-23T15:16:49.568Z,99932.53
2022-11-23T15:20:51.354Z,99926.72
2022-11-23T15:24:54.074Z,99913.59
2022-11-23T15:28:56.208Z,99923.88
2022-11-23T15:33:08.861Z,99912.06
2022-11-23T15:37:11.161Z,99907.38
2022-11-23T15:41:13.471Z,99905.56
2022-11-23T15:45:37.429Z,99905.53
2022-11-23T15:49:40.829Z,99915.78
2022-11-23T15:53:49.643Z,99912.38
2022-11-23T15:57:54.320Z,99920.59
2022-11-23T16:01:56.549Z,99924.97
2022-11-23T16:06:13.827Z,99915.25
2022-11-23T16:10:22.537Z,99916.66
2022-11-23T16:14:31.904Z,99914.03
2022-11-23T16:18:34.253Z,99925.88
2022-11-23T16:22:40.439Z,99924.63
2022-11-23T16:26:43.885Z,99921.06
2022-11-23T16:30:48.567Z,99915.16
2022-11-23T16:34:50.881Z,99911.84
2022-11-23T16:38:52.751Z,99908.50
2022-11-23T16:42:54.413Z,99904.34
2022-11-23T16:47:19.873Z,99911.88
2022-11-23T16:51:21.523Z,99919.53
2022-11-23T16:55:23.563Z,99922.88
2022-11-23T16:59:25.909Z,99936.88
2022-11-23T17:03:28.229Z,99934.19
2022-11-23T17:07:30.242Z,99926.75
2022-11-23T17:11:32.299Z,99931.09
2022-11-23T17:15:33.876Z,99926.75
2022-11-23T17:19:36.008Z,99923.31
2022-11-23T17:23:42.703Z,99923.59
2022-11-23T17:27:46.357Z,99919.84
2022-11-23T17:31:49.485Z,99921.66
2022-11-23T17:35:56.234Z,99916.84
2022-11-23T17:39:57.955Z,99914.09
2022-11-23T17:44:00.282Z,99909.81
2022-11-23T17:48:03.689Z,99917.53
2022-11-23T17:52:06.151Z,99916.69
2022-11-23T17:56:16.973Z,99921.38
2022-11-23T18:00:21.580Z,99922.84
2022-11-23T18:04:23.672Z,99919.03
2022-11-23T18:08:25.713Z,99929.56
2022-11-23T18:12:27.583Z,99925.91
2022-11-23T18:16:29.760Z,99930.22
2022-11-23T18:20:31.580Z,99914.84
2022-11-23T18:24:33.718Z,99917.25
2022-11-23T18:28:35.688Z,99926.75
2022-11-23T18:32:37.787Z,99923.47
2022-11-23T18:36:39.648Z,99911.44
2022-11-23T18:40:41.814Z,99922.91
2022-11-23T18:44:43.485Z,99925.38
2022-11-23T18:48:47.133Z,99920.53
2022-11-23T18:52:48.832Z,99924.06
2022-11-23T18:56:50.882Z,99922.53
2022-11-23T19:00:52.804Z,99921.56
2022-11-23T19:04:54.852Z,99909.44
2022-11-23T19:08:57.483Z,99906.13
2022-11-23T19:13:05.189Z,99906.88
2022-11-23T19:17:07.423Z,99906.94
2022-11-23T19:21:16.684Z,99917.94
2022-11-23T19:25:19.359Z,99915.47
2022-11-23T19:29:24.810Z,99915.19
2022-11-23T19:33:29.238Z,99910.19
2022-11-23T19:37:31.377Z,99912.66
2022-11-23T19:41:33.301Z,99920.06
2022-11-23T19:45:35.563Z,99922.00
2022-11-23T19:49:37.464Z,99920.09
2022-11-23T19:53:40.632Z,99913.41
2022-11-23T19:57:42.312Z,99935.69
2022-11-23T20:01:44.595Z,99938.91
2022-11-23T20:05:56.379Z,99935.41
2022-11-23T20:09:58.454Z,99935.66
2022-11-23T20:14:01.555Z,99954.88
2022-11-23T20:18:03.969Z,99948.81
2022-11-23T20:22:05.721Z,99937.09
2022-11-23T20:26:09.101Z,99938.00
2022-11-23T20:30:11.357Z,99950.72
2022-11-23T20:34:19.830Z,99943.91
2022-11-23T20:38:23.125Z,99933.41
2022-11-23T20:42:25.199Z,99953.41
2022-11-23T20:46:59.866Z,99967.81
2022-11-23T20:50:51.340Z,99969.75
2022-11-23T20:54:53.419Z,99956.16
2022-11-23T20:58:57.234Z,99923.59
2022-11-23T21:02:59.172Z,99943.47
2022-11-23T21:07:01.635Z,99950.13
2022-11-23T21:11:26.081Z,99968.75
2022-11-23T21:15:28.571Z,99959.88
2022-11-23T21:19:32.922Z,99940.53
2022-11-23T21:23:36.204Z,99953.97
2022-11-23T21:27:38.166Z,99955.66
2022-11-23T21:31:42.751Z,99958.06
2022-11-23T21:35:44.567Z,99961.44
2022-11-23T21:39:52.723Z,99960.53
2022-11-23T21:43:54.877Z,99956.94
2022-11-23T21:47:57.050Z,99966.47
2022-11-23T21:51:59.119Z,99973.25
2022-11-23T21:56:05.694Z,99964.72
2022-11-23T22:00:08.369Z,99959.75
2022-11-23T22:04:15.814Z,99963.34
2022-11-23T22:08:33.100Z,99960.94
2022-11-23T22:12:35.073Z,99957.38
2022-11-23T22:16:41.422Z,99964.25
2022-11-23T22:20:43.713Z,99965.03
2022-11-23T22:24:45.291Z,99954.72
2022-11-23T22:28:51.287Z,99965.69
2022-11-23T22:32:53.034Z,99978.56
2022-11-23T22:36:55.313Z,99974.38
2022-11-23T22:40:57.171Z,99965.88
2022-11-23T22:44:59.384Z,99962.31
2022-11-23T22:49:01.895Z,99962.34
2022-11-23T22:53:04.108Z,99955.28
2022-11-23T22:57:05.889Z,99959.56
2022-11-23T23:01:13.734Z,99960.84
2022-11-23T23:05:15.501Z,99957.31
2022-11-23T23:09:17.794Z,99962.41
2022-11-23T23:13:20.195Z,99956.94
2022-11-23T23:17:22.434Z,99950.38
2022-11-23T23:21:25.397Z,99959.66
2022-11-23T23:25:27.601Z,99951.28
2022-11-23T23:29:29.744Z,99965.03
2022-11-23T23:33:33.375Z,99958.88
2022-11-23T23:37:35.165Z,99947.91
2022-11-23T23:41:37.220Z,99957.16
2022-11-23T23:45:38.903Z,99950.22
2022-11-23T23:49:40.888Z,99966.66
2022-11-23T23:53:43.685Z,99975.13
2022-11-23T23:57:45.656Z,99952.13
